Time;durP1;ratioP1;P1;durP2;ratioP2;P2;SDS_P1;SDS_P2;PMS_P1;PMS_P2;Temp;Humidity;BMP_temperature;BMP_pressure;BME280_temperature;BME280_humidity;BME280_pressure;Samples;Min_cycle;Max_cycle;Signal;HPM_P1;HPM_P2
2022/04/20 00:00:06;;;;;;;4.22;2.28;;;;;;;7.71;47.28;98491.03;5011240;28;20057;-71
2022/04/20 00:02:31;;;;;;;4.13;2.00;;;;;;;7.62;47.43;98477.72;5014379;28;20057;-71
2022/04/20 00:04:56;;;;;;;4.45;2.25;;;;;;;7.51;47.63;98470.13;5015219;28;20025;-71
2022/04/20 00:07:22;;;;;;;4.72;1.90;;;;;;;7.59;47.60;98486.16;5011937;28;20057;-71
2022/04/20 00:09:48;;;;;;;5.47;2.47;;;;;;;7.55;48.27;98492.97;5011491;28;20028;-71
2022/04/20 00:12:13;;;;;;;7.47;4.03;;;;;;;7.42;48.02;98474.00;5009319;28;20434;-71
2022/04/20 00:14:38;;;;;;;6.10;3.13;;;;;;;7.46;48.57;98488.72;5015111;28;20026;-71
2022/04/20 00:17:04;;;;;;;6.40;2.40;;;;;;;7.41;49.00;98483.94;5011926;28;20026;-70
2022/04/20 00:19:29;;;;;;;5.22;2.38;;;;;;;7.38;49.12;98488.84;5010992;28;20026;-71
2022/04/20 00:21:55;;;;;;;5.57;2.22;;;;;;;7.35;49.06;98489.22;5011530;28;20044;-71
2022/04/20 00:24:20;;;;;;;5.07;2.15;;;;;;;7.24;49.46;98479.78;5011752;28;20384;-71
2022/04/20 00:26:45;;;;;;;5.38;2.00;;;;;;;7.08;49.54;98461.19;5010460;28;20026;-71
2022/04/20 00:29:11;;;;;;;3.25;1.80;;;;;;;7.10;49.70;98492.25;5013379;28;20026;-71
2022/04/20 00:31:36;;;;;;;5.97;2.60;;;;;;;7.15;50.09;98484.47;5008979;28;20025;-71
2022/04/20 00:34:01;;;;;;;4.82;1.77;;;;;;;6.89;50.91;98465.28;5013595;28;20022;-71
2022/04/20 00:36:26;;;;;;;4.18;2.40;;;;;;;6.98;51.03;98477.63;5011517;28;20463;-71
2022/04/20 00:38:52;;;;;;;3.45;2.00;;;;;;;6.85;51.38;98483.66;5026660;28;20029;-71
2022/04/20 00:41:17;;;;;;;5.03;2.30;;;;;;;6.74;51.12;98462.66;5027987;28;20026;-71
2022/04/20 00:43:43;;;;;;;4.63;2.10;;;;;;;6.91;51.63;98477.53;5026958;28;20029;-71
2022/04/20 00:46:09;;;;;;;4.63;2.00;;;;;;;6.76;51.40;98461.44;5028035;28;20052;-71
2022/04/20 00:48:36;;;;;;;4.82;2.47;;;;;;;6.84;51.46;98484.69;5017920;28;20018;-72
2022/04/20 00:51:01;;;;;;;5.75;2.30;;;;;;;6.70;52.54;98483.66;5021487;28;20025;-72
2022/04/20 00:53:27;;;;;;;6.47;2.22;;;;;;;6.69;52.67;98481.19;5030551;28;20032;-71
2022/04/20 00:55:52;;;;;;;4.57;2.38;;;;;;;6.60;52.33;98467.00;5026827;28;20029;-71
2022/04/20 00:58:17;;;;;;;3.17;1.83;;;;;;;6.73;52.36;98477.94;5027222;28;20105;-71
2022/04/20 01:00:43;;;;;;;3.17;2.05;;;;;;;6.46;52.42;98446.34;5026692;28;20024;-71
2022/04/20 01:03:08;;;;;;;3.58;1.98;;;;;;;6.68;53.04;98483.03;5015804;28;20390;-71
2022/04/20 01:05:34;;;;;;;5.45;2.28;;;;;;;6.39;53.58;98473.09;5018997;28;20018;-72
2022/04/20 01:07:59;;;;;;;7.13;2.80;;;;;;;6.38;53.81;98489.44;5022879;28;20022;-71
2022/04/20 01:10:24;;;;;;;4.20;2.25;;;;;;;6.07;54.96;98474.28;5024098;28;20037;-71
2022/04/20 01:12:50;;;;;;;3.38;2.22;;;;;;;6.29;54.72;98497.56;5026574;28;20064;-71
2022/04/20 01:15:17;;;;;;;2.45;1.80;;;;;;;6.24;54.22;98496.47;5029091;28;20042;-71
2022/04/20 01:17:43;;;;;;;5.18;2.33;;;;;;;5.98;55.83;98494.19;5029999;28;20042;-71
2022/04/20 01:20:13;;;;;;;6.18;2.33;;;;;;;6.02;55.83;98496.31;5028674;28;20028;-71
2022/04/20 01:22:39;;;;;;;7.78;2.55;;;;;;;5.89;55.46;98486.19;5025235;28;20026;-73
2022/04/20 01:25:05;;;;;;;5.93;2.83;;;;;;;5.76;56.90;98491.28;5009556;28;20480;-71
2022/04/20 01:27:30;;;;;;;5.65;2.38;;;;;;;5.83;56.48;98473.47;5009876;28;20080;-71
2022/04/20 01:29:55;;;;;;;3.17;2.50;;;;;;;5.91;56.72;98502.09;5005029;28;20030;-71
2022/04/20 01:32:21;;;;;;;4.63;2.53;;;;;;;5.59;56.80;98468.31;5030486;28;20052;-71
2022/04/20 01:34:46;;;;;;;4.63;2.22;;;;;;;5.78;57.07;98500.00;5032077;28;20049;-72
2022/04/20 01:37:11;;;;;;;4.13;2.45;;;;;;;5.66;57.84;98490.72;5031855;28;20036;-71
2022/04/20 01:39:36;;;;;;;4.47;2.70;;;;;;;5.70;57.91;98502.75;5028318;28;20045;-72
2022/04/20 01:42:02;;;;;;;4.35;2.15;;;;;;;5.53;58.65;98482.41;5031986;28;20029;-71
2022/04/20 01:44:27;;;;;;;4.00;2.55;;;;;;;5.41;58.58;98456.00;5026192;28;20033;-71
2022/04/20 01:46:52;;;;;;;4.70;2.60;;;;;;;5.49;58.69;98458.63;5031788;28;20145;-72
2022/04/20 01:49:18;;;;;;;4.85;2.30;;;;;;;5.52;59.19;98470.84;5027652;28;20025;-71
2022/04/20 01:51:52;;;;;;;3.50;2.30;;;;;;;5.76;59.40;98487.78;5013315;28;20034;-71
2022/04/20 01:54:21;;;;;;;4.72;2.63;;;;;;;5.69;59.33;98499.25;5005403;28;20034;-71
2022/04/20 01:56:48;;;;;;;6.03;2.72;;;;;;;5.69;59.88;98495.75;5012399;28;20030;-71
2022/04/20 01:59:14;;;;;;;4.45;2.38;;;;;;;5.54;60.00;98482.25;5008803;28;20037;-72
2022/04/20 02:04:24;;;;;;;3.05;2.00;;;;;;;5.55;59.67;98469.66;5013667;28;20040;-72
2022/04/20 02:06:49;;;;;;;4.35;2.70;;;;;;;5.72;59.67;98490.00;5003191;28;20388;-72
2022/04/20 02:09:15;;;;;;;3.08;2.20;;;;;;;5.64;59.80;98490.06;5008944;28;20017;-72
2022/04/20 02:11:40;;;;;;;4.28;2.45;;;;;;;5.47;61.19;98489.34;5012827;28;20105;-71
2022/04/20 02:14:05;;;;;;;3.72;2.13;;;;;;;5.37;60.97;98478.88;5003511;28;20077;-71
2022/04/20 02:16:31;;;;;;;5.05;2.90;;;;;;;5.21;61.55;98468.22;5010000;28;20515;-71
2022/04/20 02:18:56;;;;;;;6.53;2.50;;;;;;;4.98;62.08;98466.34;5009994;28;20480;-71
2022/04/20 02:21:22;;;;;;;4.72;2.70;;;;;;;4.83;62.13;98471.63;5008468;28;20114;-71
2022/04/20 02:23:47;;;;;;;6.20;2.80;;;;;;;4.89;63.43;98488.84;5011415;28;20148;-71
2022/04/20 02:26:13;;;;;;;5.68;2.90;;;;;;;4.80;63.72;98489.91;5013626;28;20045;-72
2022/04/20 02:28:38;;;;;;;3.75;2.55;;;;;;;4.74;64.08;98490.56;5010573;28;20050;-72
2022/04/20 02:31:03;;;;;;;5.80;2.80;;;;;;;4.70;64.39;98479.38;5014749;28;20044;-72
2022/04/20 02:33:29;;;;;;;7.05;2.60;;;;;;;4.50;64.94;98465.53;5015647;28;20501;-71
2022/04/20 02:35:57;;;;;;;3.88;2.75;;;;;;;4.62;65.32;98487.47;5012234;28;20025;-71
2022/04/20 02:38:23;;;;;;;7.47;3.30;;;;;;;4.45;65.89;98483.16;5011579;28;20040;-71
2022/04/20 02:40:50;;;;;;;4.93;2.80;;;;;;;4.42;65.54;98492.38;5011075;28;20092;-72
2022/04/20 02:43:16;;;;;;;4.40;2.50;;;;;;;4.17;66.09;98472.88;5011422;28;20029;-72
2022/04/20 02:45:41;;;;;;;4.38;2.83;;;;;;;4.03;67.11;98460.97;5003893;28;20056;-72
2022/04/20 02:48:07;;;;;;;9.00;2.72;;;;;;;4.05;68.07;98474.22;5011521;28;20513;-72
2022/04/20 02:50:32;;;;;;;5.03;3.30;;;;;;;4.04;68.16;98478.72;5046154;22;20493;-65
2022/04/20 02:52:58;;;;;;;3.72;2.40;;;;;;;4.06;68.20;98489.25;5015344;28;20046;-67
2022/04/20 02:55:23;;;;;;;5.05;2.60;;;;;;;4.12;68.63;98486.75;5015850;28;20032;-67
2022/04/20 02:57:49;;;;;;;4.68;2.65;;;;;;;4.11;68.62;98489.59;5012271;28;20034;-67
2022/04/20 03:00:15;;;;;;;4.05;2.80;;;;;;;4.13;68.23;98488.41;5004127;28;20406;-67
2022/04/20 03:02:41;;;;;;;5.32;2.65;;;;;;;4.14;68.88;98484.75;4994945;28;20053;-68
2022/04/20 03:05:06;;;;;;;5.50;2.50;;;;;;;4.07;69.02;98491.78;4991522;28;20570;-67
2022/04/20 03:07:32;;;;;;;4.65;2.75;;;;;;;4.01;69.21;98486.25;4992773;28;20172;-67
2022/04/20 03:09:57;;;;;;;5.93;2.88;;;;;;;3.84;69.02;98467.53;4989773;28;20034;-67
2022/04/20 03:12:23;;;;;;;3.92;2.75;;;;;;;3.84;69.31;98475.56;4992850;28;20368;-67
2022/04/20 03:14:48;;;;;;;4.25;2.47;;;;;;;3.83;69.55;98489.13;4991508;28;20030;-68
2022/04/20 03:17:14;;;;;;;4.65;2.65;;;;;;;3.99;68.96;98485.59;4994308;28;20053;-67
2022/04/20 03:19:39;;;;;;;4.28;2.70;;;;;;;3.83;68.61;98484.63;4984788;28;20030;-67
2022/04/20 03:22:04;;;;;;;5.30;2.83;;;;;;;3.69;69.59;98456.69;4988298;28;20034;-67
2022/04/20 03:24:30;;;;;;;3.67;2.78;;;;;;;3.72;70.00;98490.28;4991847;28;22212;-67
2022/04/20 03:26:55;;;;;;;4.35;2.72;;;;;;;3.42;70.97;98459.69;4991110;28;20069;-67
2022/04/20 03:29:20;;;;;;;5.57;2.67;;;;;;;3.54;71.21;98498.50;4992078;28;20492;-67
2022/04/20 03:31:45;;;;;;;3.90;2.53;;;;;;;3.50;71.35;98492.63;4992576;28;20073;-67
2022/04/20 03:34:12;;;;;;;6.95;2.92;;;;;;;3.29;71.98;98468.19;4989163;28;20040;-66
2022/04/20 03:36:37;;;;;;;4.82;3.05;;;;;;;3.41;72.99;98493.63;4993084;28;20030;-66
2022/04/20 03:39:04;;;;;;;4.15;2.90;;;;;;;3.28;72.87;98501.31;4993737;28;20026;-68
2022/04/20 03:41:29;;;;;;;3.92;2.55;;;;;;;3.16;72.36;98470.53;4974961;28;20088;-68
2022/04/20 03:43:54;;;;;;;5.45;3.13;;;;;;;3.27;72.78;98497.78;4986371;28;20480;-68
2022/04/20 03:46:21;;;;;;;3.90;2.65;;;;;;;3.16;73.22;98500.75;4988723;28;20033;-67
2022/04/20 03:48:47;;;;;;;3.58;2.67;;;;;;;3.12;73.72;98498.56;4987312;28;20022;-68
2022/04/20 03:51:12;;;;;;;6.80;3.05;;;;;;;3.07;74.55;98496.41;4988200;28;20027;-68
2022/04/20 03:53:37;;;;;;;7.32;2.90;;;;;;;3.12;73.81;98496.75;4993775;28;20030;-68
2022/04/20 03:56:03;;;;;;;5.50;3.00;;;;;;;3.10;74.18;98496.06;4987808;28;20105;-67
2022/04/20 03:58:28;;;;;;;6.75;3.10;;;;;;;3.14;74.28;98504.59;4985561;28;20031;-69
2022/04/20 04:00:54;;;;;;;7.07;3.40;;;;;;;2.99;74.13;98513.25;4984949;28;20030;-70
2022/04/20 04:03:19;;;;;;;4.10;2.75;;;;;;;2.97;74.63;98501.06;4985247;28;20031;-72
2022/04/20 04:05:45;;;;;;;3.65;2.63;;;;;;;2.92;75.38;98504.19;4991794;28;20030;-67
2022/04/20 04:08:10;;;;;;;5.13;3.03;;;;;;;2.91;75.69;98510.56;4993435;28;20074;-67
2022/04/20 04:10:35;;;;;;;4.20;2.58;;;;;;;2.84;76.52;98499.66;4992128;28;20452;-69
2022/04/20 04:13:01;;;;;;;4.55;3.28;;;;;;;2.53;76.58;98450.47;4990376;28;20097;-72
2022/04/20 04:15:27;;;;;;;4.93;3.00;;;;;;;2.63;77.00;98500.09;4990579;28;20503;-67
2022/04/20 04:17:59;;;;;;;5.30;3.28;;;;;;;2.68;76.84;98490.78;4991787;28;20033;-75
2022/04/20 04:20:27;;;;;;;5.07;3.33;;;;;;;2.77;76.43;98487.94;4988055;28;20046;-72
2022/04/20 04:22:53;;;;;;;4.65;3.03;;;;;;;2.82;75.33;98472.28;4990069;28;20014;-66
2022/04/20 04:25:19;;;;;;;5.07;3.10;;;;;;;3.17;74.49;98504.25;4992518;28;20042;-65
2022/04/20 04:27:45;;;;;;;4.50;3.00;;;;;;;3.16;74.48;98514.13;4990825;28;20164;-69
2022/04/20 04:30:11;;;;;;;7.07;3.50;;;;;;;3.12;74.48;98490.53;4993699;28;20030;-69
2022/04/20 04:32:36;;;;;;;6.68;3.38;;;;;;;3.18;75.03;98514.81;4991773;28;20088;-71
2022/04/20 04:35:02;;;;;;;5.63;3.50;;;;;;;3.14;74.75;98508.09;4989311;28;20563;-70
2022/04/20 04:37:28;;;;;;;6.55;3.30;;;;;;;3.17;74.76;98512.28;4981564;28;20556;-69
2022/04/20 04:39:53;;;;;;;5.20;3.53;;;;;;;3.15;74.79;98514.31;4987715;28;20026;-67
2022/04/20 04:42:19;;;;;;;5.60;2.92;;;;;;;3.04;74.65;98491.41;4987302;28;20034;-69
2022/04/20 04:44:44;;;;;;;5.57;3.15;;;;;;;3.21;74.62;98513.63;4985829;28;20026;-70
2022/04/20 04:49:53;;;;;;;5.07;3.20;;;;;;;3.19;75.25;98508.44;4980621;28;20115;-70
2022/04/20 04:52:19;;;;;;;5.68;3.50;;;;;;;3.29;74.90;98508.31;4981515;28;20487;-65
2022/04/20 04:54:44;;;;;;;6.88;3.38;;;;;;;3.34;74.21;98510.50;4992789;28;20025;-65
2022/04/20 04:57:12;;;;;;;4.80;3.47;;;;;;;3.35;73.61;98488.91;4993275;28;20160;-65
2022/04/20 04:59:38;;;;;;;5.90;3.17;;;;;;;3.70;72.35;98503.84;4987399;28;20030;-65
2022/04/20 05:02:05;;;;;;;4.85;3.17;;;;;;;3.82;71.59;98507.00;4983859;28;20034;-65
2022/04/20 05:04:30;;;;;;;5.13;3.03;;;;;;;3.94;71.21;98510.19;4981767;28;20023;-61
2022/04/20 05:06:57;;;;;;;7.53;3.35;;;;;;;4.13;69.98;98511.69;4985572;28;20398;-69
2022/04/20 05:09:22;;;;;;;5.88;3.25;;;;;;;3.77;69.72;98446.97;4986774;28;20023;-75
2022/04/20 05:11:49;;;;;;;5.95;3.45;;;;;;;4.02;69.52;98470.03;4991262;28;20451;-76
2022/04/20 05:14:17;;;;;;;5.97;3.40;;;;;;;4.34;69.52;98497.75;4992342;28;20121;-68
2022/04/20 05:16:42;;;;;;;4.97;3.05;;;;;;;4.22;69.20;98462.47;4988082;28;20472;-71
2022/04/20 05:19:08;;;;;;;9.93;3.30;;;;;;;4.38;68.04;98474.97;4985938;28;20022;-70
2022/04/20 05:21:34;;;;;;;4.78;3.40;;;;;;;4.65;67.67;98486.28;5003176;28;20027;-75
2022/04/20 05:23:59;;;;;;;7.07;3.30;;;;;;;4.74;67.07;98466.47;4991518;28;20080;-76
2022/04/20 05:26:25;;;;;;;5.05;3.03;;;;;;;5.05;66.28;98501.31;4985987;28;20081;-71
2022/04/20 05:28:51;;;;;;;5.40;3.30;;;;;;;5.22;65.96;98488.69;4988500;28;20018;-68
2022/04/20 05:31:16;;;;;;;4.30;3.15;;;;;;;5.33;65.86;98509.72;4981978;28;20030;-69
2022/04/20 05:33:42;;;;;;;7.78;3.22;;;;;;;5.53;64.88;98501.19;4992550;28;20110;-71
2022/04/20 05:36:07;;;;;;;4.78;3.10;;;;;;;5.70;64.68;98505.44;4980023;28;20109;-68
2022/04/20 05:41:39;;;;;;;3.33;2.70;;;;;;;6.06;62.54;98492.25;4989536;28;20623;-75
2022/04/20 05:44:06;;;;;;;4.30;1.98;;;;;;;6.19;62.40;98480.88;4991306;28;20030;-72
2022/04/20 05:46:33;;;;;;;5.22;3.00;;;;;;;6.47;61.91;98499.91;4986999;28;20083;-69
2022/04/20 05:48:58;;;;;;;3.88;2.97;;;;;;;6.68;60.95;98492.94;4980740;28;20380;-66
2022/04/20 05:51:24;;;;;;;3.88;2.88;;;;;;;6.99;59.05;98484.66;4985616;28;20058;-63
2022/04/20 05:53:49;;;;;;;3.42;2.70;;;;;;;7.58;58.07;98497.13;4987898;28;20037;-67
2022/04/20 05:56:14;;;;;;;5.75;3.13;;;;;;;8.42;55.06;98494.53;4992633;28;20109;-65
2022/04/20 05:58:40;;;;;;;7.28;2.65;;;;;;;10.23;50.22;98491.38;4990690;28;20050;-67
2022/04/20 06:01:05;;;;;;;8.60;2.92;;;;;;;12.00;45.33;98475.72;4985754;28;20039;-67
2022/04/20 06:03:30;;;;;;;3.38;2.25;;;;;;;14.03;40.00;98476.47;4991410;28;20026;-68
2022/04/20 06:05:55;;;;;;;4.55;2.50;;;;;;;15.50;36.94;98485.47;4992282;28;20076;-65
2022/04/20 06:08:21;;;;;;;4.03;2.70;;;;;;;16.36;35.87;98488.94;4987952;28;20030;-66
2022/04/20 06:10:46;;;;;;;6.00;2.40;;;;;;;17.02;34.17;98488.28;4985778;28;20050;-67
2022/04/20 06:13:12;;;;;;;4.57;2.15;;;;;;;17.55;32.73;98485.94;4991742;28;20460;-65
2022/04/20 06:15:38;;;;;;;2.63;2.05;;;;;;;17.03;32.84;98498.16;4992331;28;20022;-65
2022/04/20 06:18:03;;;;;;;3.53;2.25;;;;;;;16.10;34.37;98500.50;4990583;28;20535;-68
2022/04/20 06:20:29;;;;;;;3.50;2.17;;;;;;;16.34;33.75;98507.47;4990435;28;20380;-67
2022/04/20 06:22:54;;;;;;;4.90;2.10;;;;;;;16.38;33.17;98469.59;4989902;28;20030;-67
2022/04/20 06:25:19;;;;;;;3.83;2.40;;;;;;;18.03;30.99;98492.50;4993226;28;20109;-66
2022/04/20 06:27:44;;;;;;;2.85;2.08;;;;;;;18.49;30.37;98484.63;4988251;28;20030;-65
2022/04/20 06:30:10;;;;;;;3.13;1.98;;;;;;;18.57;29.70;98486.88;4982025;28;20065;-64
2022/04/20 06:32:36;;;;;;;2.65;1.90;;;;;;;17.30;30.97;98499.03;4985210;28;20407;-62
2022/04/20 06:35:02;;;;;;;3.55;1.95;;;;;;;18.18;30.02;98493.44;4994558;28;20026;-63
2022/04/20 06:37:28;;;;;;;4.55;2.20;;;;;;;18.97;29.48;98491.84;4994942;28;20097;-62
2022/04/20 06:39:56;;;;;;;2.35;1.92;;;;;;;19.15;28.46;98487.84;4987401;28;20034;-62
2022/04/20 06:42:22;;;;;;;3.25;1.85;;;;;;;20.92;26.28;98470.22;5007001;28;20457;-63
2022/04/20 06:44:47;;;;;;;3.78;2.17;;;;;;;20.93;26.59;98475.47;4995856;28;20093;-67
2022/04/20 06:47:13;;;;;;;7.45;2.35;;;;;;;20.70;26.43;98474.13;4989413;28;20043;-72
2022/04/20 06:49:38;;;;;;;4.10;2.08;;;;;;;20.15;27.07;98478.53;4995250;28;20046;-73
2022/04/20 07:00:16;;;;;;;3.95;2.10;;;;;;;19.57;27.71;98478.66;4995719;28;20085;-68
2022/04/20 07:02:42;;;;;;;3.20;2.00;;;;;;;18.67;28.84;98476.00;4990631;28;20034;-72
2022/04/20 07:05:09;;;;;;;3.63;2.30;;;;;;;17.57;29.74;98468.16;4985875;28;20492;-68
2022/04/20 07:07:34;;;;;;;3.15;1.85;;;;;;;17.43;30.22;98472.41;4993522;28;20551;-66
2022/04/20 07:10:00;;;;;;;2.70;2.10;;;;;;;15.68;32.74;98487.19;4986589;28;20026;-68
2022/04/20 07:12:25;;;;;;;2.58;2.10;;;;;;;15.41;32.50;98467.88;4988838;28;20030;-72
2022/04/20 07:14:50;;;;;;;4.22;2.28;;;;;;;16.38;31.88;98486.78;4994594;28;20050;-68
2022/04/20 07:17:17;;;;;;;3.83;2.20;;;;;;;17.55;30.62;98484.00;4992793;28;20022;-66
2022/04/20 07:19:42;;;;;;;4.53;2.10;;;;;;;16.84;30.90;98478.47;4986065;28;20026;-65
2022/04/20 07:22:07;;;;;;;3.63;2.20;;;;;;;19.56;27.94;98466.03;4991424;28;20031;-67
2022/04/20 07:24:32;;;;;;;5.05;2.30;;;;;;;19.74;26.84;98477.63;4989104;28;20477;-66
2022/04/20 07:26:58;;;;;;;3.63;2.30;;;;;;;17.64;29.34;98467.97;4985805;28;20031;-67
2022/04/20 07:29:23;;;;;;;3.40;1.83;;;;;;;16.68;30.68;98487.50;4989088;28;20030;-68
2022/04/20 07:31:48;;;;;;;4.35;2.50;;;;;;;16.10;31.52;98490.41;4991096;28;20105;-67
2022/04/20 07:34:14;;;;;;;2.53;2.08;;;;;;;16.93;30.97;98478.91;4989717;28;20069;-68
2022/04/20 07:36:39;;;;;;;3.17;2.20;;;;;;;17.85;29.53;98480.81;4992201;28;20113;-65
2022/04/20 07:39:04;;;;;;;2.85;1.98;;;;;;;18.14;29.17;98488.75;4990308;28;20069;-69
2022/04/20 07:41:30;;;;;;;2.70;1.90;;;;;;;17.42;29.68;98479.78;4990876;28;20038;-70
2022/04/20 07:43:55;;;;;;;3.28;2.25;;;;;;;18.21;29.01;98469.34;4983239;28;20023;-67
2022/04/20 07:46:21;;;;;;;3.55;2.10;;;;;;;18.79;28.38;98482.16;4982904;28;20038;-66
2022/04/20 07:48:46;;;;;;;3.83;2.20;;;;;;;18.01;28.92;98476.31;4983955;28;20056;-67
2022/04/20 07:51:13;;;;;;;3.17;1.88;;;;;;;18.47;29.22;98495.88;4991519;28;20106;-65
2022/04/20 07:53:38;;;;;;;3.60;2.00;;;;;;;20.08;27.35;98484.28;4991242;28;20452;-64
2022/04/20 07:56:05;;;;;;;4.05;1.73;;;;;;;21.53;25.65;98483.78;4994153;28;20136;-65
2022/04/20 07:58:30;;;;;;;3.83;1.65;;;;;;;22.22;24.20;98459.16;4987805;28;20396;-65
2022/04/20 08:00:57;;;;;;;3.40;2.00;;;;;;;22.31;23.80;98480.25;4981320;28;20041;-65
2022/04/20 08:03:23;;;;;;;2.75;1.67;;;;;;;22.44;24.47;98470.50;4980986;28;20022;-65
2022/04/20 08:05:54;;;;;;;3.00;1.80;;;;;;;23.13;23.53;98478.66;4986016;28;20034;-65
2022/04/20 08:08:20;;;;;;;3.85;2.10;;;;;;;21.97;23.69;98476.63;4983497;28;20030;-65
2022/04/20 08:10:46;;;;;;;3.40;2.08;;;;;;;22.57;23.30;98490.25;4983003;28;20052;-65
2022/04/20 08:15:55;;;;;;;4.97;1.80;;;;;;;21.19;24.50;98492.69;4988713;28;20039;-65
2022/04/20 08:18:21;;;;;;;4.07;2.15;;;;;;;21.87;24.15;98491.28;4981536;28;20034;-66
2022/04/20 08:20:47;;;;;;;2.80;1.80;;;;;;;23.10;22.70;98482.03;4979004;28;20034;-66
2022/04/20 08:23:12;;;;;;;3.80;1.80;;;;;;;21.81;24.72;98473.16;4987415;28;20084;-67
2022/04/20 08:25:39;;;;;;;2.80;1.90;;;;;;;22.85;23.30;98483.91;4990430;28;20077;-64
2022/04/20 08:28:05;;;;;;;5.53;2.08;;;;;;;22.85;22.87;98497.72;4984883;28;20495;-69
2022/04/20 08:30:31;;;;;;;3.38;1.80;;;;;;;22.41;23.53;98479.34;4987459;28;20115;-69
2022/04/20 08:32:56;;;;;;;4.60;1.83;;;;;;;22.99;21.80;98463.94;4992569;28;20032;-70
2022/04/20 08:35:22;;;;;;;4.55;1.58;;;;;;;22.21;22.90;98490.53;4993784;28;20033;-70
2022/04/20 08:37:47;;;;;;;4.30;1.65;;;;;;;21.48;23.25;98469.22;4988835;28;20706;-72
2022/04/20 08:40:13;;;;;;;3.30;2.10;;;;;;;22.58;22.81;98478.91;4990247;28;20121;-72
2022/04/20 08:42:39;;;;;;;2.40;1.60;;;;;;;24.00;20.87;98461.00;4991868;28;20080;-71
2022/04/20 08:45:05;;;;;;;1.77;1.58;;;;;;;22.46;21.64;98461.97;4993380;28;20037;-72
2022/04/20 08:47:36;;;;;;;2.78;1.85;;;;;;;22.92;23.04;98464.25;4990811;28;20030;-71
2022/04/20 08:50:03;;;;;;;3.42;1.45;;;;;;;23.62;21.55;98469.22;4985336;28;20023;-70
2022/04/20 08:52:37;;;;;;;5.10;1.70;;;;;;;23.98;20.55;98461.28;5043425;22;20539;-69
2022/04/20 08:55:07;;;;;;;2.53;1.48;;;;;;;23.41;20.22;98460.38;5021097;28;20032;-69
2022/04/20 08:57:33;;;;;;;;;;;;;;;22.93;21.46;98469.47;5032593;28;20026;-68
2022/04/20 08:59:59;;;;;;;2.70;1.80;;;;;;;23.49;20.96;98465.25;5028762;28;20064;-71
2022/04/20 09:02:25;;;;;;;5.15;2.00;;;;;;;24.02;21.30;98467.00;5034120;28;20104;-70
2022/04/20 09:04:52;;;;;;;2.92;1.55;;;;;;;23.27;22.66;98457.53;5026515;28;20025;-70
2022/04/20 09:07:18;;;;;;;3.05;1.75;;;;;;;22.95;22.15;98458.13;5032751;28;20493;-70
2022/04/20 09:09:44;;;;;;;2.60;1.65;;;;;;;23.53;21.92;98462.72;5025115;28;20093;-71
2022/04/20 09:12:22;;;;;;;2.58;1.73;;;;;;;24.21;20.12;98465.06;5032846;28;20052;-70
2022/04/20 09:14:50;;;;;;;2.63;1.75;;;;;;;24.48;19.92;98455.25;5025775;28;20018;-74
2022/04/20 09:17:17;;;;;;;3.92;1.85;;;;;;;23.84;19.96;98455.69;5032005;28;20391;-73
2022/04/20 09:19:48;;;;;;;2.28;1.75;;;;;;;24.95;19.62;98456.03;5025100;28;20021;-73
2022/04/20 09:22:24;;;;;;;4.20;1.52;;;;;;;24.45;20.25;98453.09;5033227;28;20025;-73
2022/04/20 09:25:14;;;;;;;3.10;1.98;;;;;;;23.36;21.27;98438.38;5030247;28;20495;-71
2022/04/20 09:27:42;;;;;;;3.65;1.60;;;;;;;24.21;21.30;98445.72;5032186;28;20029;-75
2022/04/20 09:30:13;;;;;;;3.95;2.15;;;;;;;23.26;21.52;98447.59;5025339;28;20494;-76
2022/04/20 09:32:40;;;;;;;2.40;1.73;;;;;;;23.41;21.80;98446.59;5030021;28;20030;-74
2022/04/20 09:35:12;;;;;;;3.80;1.88;;;;;;;23.39;21.67;98446.88;5027571;28;20493;-73
2022/04/20 09:37:39;;;;;;;2.17;1.77;;;;;;;23.28;21.59;98441.78;5014409;28;20063;-74
2022/04/20 09:40:06;;;;;;;2.05;1.63;;;;;;;23.30;21.50;98456.13;5011018;28;20022;-73
2022/04/20 09:42:34;;;;;;;2.55;1.83;;;;;;;23.35;21.96;98440.31;5026604;28;20030;-74
2022/04/20 09:45:04;;;;;;;5.68;1.75;;;;;;;25.85;19.44;98439.78;5023692;28;20097;-74
2022/04/20 09:50:24;;;;;;;3.00;1.40;;;;;;;24.52;19.93;98449.91;5027975;28;20127;-76
2022/04/20 09:52:54;;;;;;;1.92;1.60;;;;;;;25.09;20.03;98454.09;5024956;28;20076;-72
2022/04/20 09:55:34;;;;;;;2.95;1.85;;;;;;;25.13;19.71;98449.59;5014498;28;20032;-73
2022/04/20 09:58:19;;;;;;;2.75;1.70;;;;;;;26.06;18.48;98444.84;5023236;28;20451;-72
2022/04/20 10:00:49;;;;;;;2.38;1.55;;;;;;;25.11;19.51;98443.53;5034736;28;20028;-73
2022/04/20 10:03:29;;;;;;;2.08;1.33;;;;;;;24.22;18.99;98430.75;5011913;28;20820;-76
2022/04/20 10:05:56;;;;;;;1.52;1.23;;;;;;;25.02;17.64;98434.31;5022541;28;20021;-73
2022/04/20 10:08:22;;;;;;;2.45;1.40;;;;;;;24.10;19.17;98427.63;5048578;28;20021;-73
2022/04/20 10:10:49;;;;;;;3.72;1.40;;;;;;;24.58;19.33;98432.13;5020776;28;20022;-72
2022/04/20 10:13:15;;;;;;;2.13;1.30;;;;;;;24.42;20.48;98421.31;5036913;28;20033;-71
2022/04/20 10:18:28;;;;;;;2.88;1.50;;;;;;;24.21;19.64;98418.06;5049302;28;20037;-71
2022/04/20 10:21:01;;;;;;;2.58;1.63;;;;;;;24.46;19.65;98424.31;5046663;28;20036;-71
2022/04/20 10:23:30;;;;;;;2.28;1.60;;;;;;;24.20;19.99;98418.34;5048374;28;20029;-72
2022/04/20 10:25:58;;;;;;;2.45;1.50;;;;;;;25.02;19.42;98400.25;5050525;28;20033;-69
2022/04/20 10:28:36;;;;;;;2.20;1.63;;;;;;;26.38;18.00;98411.31;5038873;28;20022;-69
2022/04/20 10:31:26;;;;;;;3.30;1.83;;;;;;;23.78;18.91;98403.56;5046744;28;20029;-71
2022/04/20 10:33:53;;;;;;;2.45;1.88;;;;;;;24.56;18.92;98406.72;5030663;28;20033;-69
2022/04/20 10:36:28;;;;;;;1.90;1.60;;;;;;;24.13;19.38;98401.34;5024793;28;20029;-69
2022/04/20 10:39:18;;;;;;;2.85;1.83;;;;;;;23.28;19.70;98398.44;5028165;28;20037;-72
2022/04/20 10:42:12;;;;;;;4.30;1.50;;;;;;;24.64;19.22;98401.28;5031639;28;20037;-69
2022/04/20 10:44:55;;;;;;;3.58;1.88;;;;;;;23.95;19.26;98406.63;5029895;28;20146;-70
2022/04/20 10:47:31;;;;;;;2.90;1.77;;;;;;;23.63;19.82;98393.53;5028584;28;20133;-70
2022/04/20 10:50:21;;;;;;;3.00;1.60;;;;;;;24.69;19.30;98403.13;5031528;28;20021;-69
2022/04/20 10:52:56;;;;;;;3.38;1.73;;;;;;;24.92;19.74;98401.31;5030290;28;20034;-70
2022/04/20 10:55:44;;;;;;;2.67;1.77;;;;;;;25.02;19.09;98391.97;5018658;28;20060;-70
2022/04/20 10:58:21;;;;;;;6.38;2.30;;;;;;;25.09;19.27;98384.06;5016840;28;20041;-75
2022/04/20 11:01:06;;;;;;;3.35;1.60;;;;;;;24.98;19.07;98382.66;5029358;28;20069;-75
2022/04/20 11:04:06;;;;;;;2.55;1.80;;;;;;;24.11;20.29;98376.78;5027702;28;20115;-74
2022/04/20 11:07:00;;;;;;;3.10;1.50;;;;;;;24.45;19.05;98376.47;4961663;28;20497;-75
2022/04/20 11:09:48;;;;;;;2.33;1.60;;;;;;;25.28;18.83;98378.44;5026631;28;20065;-73
2022/04/20 11:21:09;;;;;;;4.18;1.70;;;;;;;24.70;20.05;98371.56;5028148;28;20048;-70
2022/04/20 11:23:54;;;;;;;3.05;1.80;;;;;;;25.89;17.90;98362.38;5030187;28;20075;-70
2022/04/20 11:26:23;;;;;;;2.00;1.35;;;;;;;25.17;18.27;98352.91;5025703;28;20406;-70
2022/04/20 11:28:49;;;;;;;2.10;1.48;;;;;;;25.62;18.63;98341.09;5011223;28;20498;-70
2022/04/20 11:31:14;;;;;;;2.90;1.60;;;;;;;24.41;18.92;98358.00;5021413;28;20033;-71
2022/04/20 11:33:40;;;;;;;2.15;1.60;;;;;;;23.24;19.99;98344.97;5030548;28;20108;-71
2022/04/20 11:36:06;;;;;;;2.00;1.40;;;;;;;24.37;19.06;98345.91;5010777;28;20044;-72
2022/04/20 11:38:42;;;;;;;1.40;1.20;;;;;;;25.05;19.10;98327.72;5024945;28;20026;-71
2022/04/20 11:41:12;;;;;;;2.28;1.55;;;;;;;25.97;18.46;98340.25;5012993;28;20642;-68
2022/04/20 11:43:38;;;;;;;2.60;1.33;;;;;;;25.49;18.19;98328.94;5011727;28;20378;-74
2022/04/20 11:46:04;;;;;;;3.17;1.45;;;;;;;25.89;18.07;98337.44;5017579;28;20092;-73
2022/04/20 11:48:31;;;;;;;3.38;1.40;;;;;;;25.34;18.64;98335.66;5014064;28;20033;-72
2022/04/20 11:50:58;;;;;;;2.70;1.90;;;;;;;25.73;18.89;98336.97;5026375;28;20056;-69
2022/04/20 11:53:35;;;;;;;1.42;1.27;;;;;;;26.13;19.02;98326.00;5020446;28;20033;-69
2022/04/20 11:56:02;;;;;;;4.65;1.60;;;;;;;26.73;17.97;98319.94;5023327;28;20017;-69
2022/04/20 11:58:27;;;;;;;1.73;1.40;;;;;;;25.32;19.04;98307.47;5027227;28;20040;-68
2022/04/20 12:01:04;;;;;;;1.48;1.38;;;;;;;26.20;17.89;98315.28;5025049;28;20064;-69
2022/04/20 12:03:37;;;;;;;2.55;1.70;;;;;;;26.68;17.45;98306.22;5022754;28;20049;-70
2022/04/20 12:06:08;;;;;;;3.35;1.67;;;;;;;26.34;17.70;98310.47;5012344;28;20158;-71
2022/04/20 12:08:35;;;;;;;2.67;1.70;;;;;;;26.72;17.69;98311.94;5012976;28;20022;-70
2022/04/20 12:11:03;;;;;;;2.40;1.60;;;;;;;26.29;18.35;98310.59;5033568;28;20479;-69
2022/04/20 12:13:29;;;;;;;2.42;1.75;;;;;;;25.96;18.22;98302.59;5051956;28;20058;-70